createdAt,value
2023-04-06T00:00:25.777Z,1.38
2023-04-06T00:03:48.322Z,1.20
2023-04-06T00:07:10.834Z,1.45
2023-04-06T00:10:33.343Z,1.33
2023-04-06T00:13:55.640Z,1.23
2023-04-06T00:17:18.832Z,1.33
2023-04-06T00:20:41.297Z,1.40
2023-04-06T00:24:04.885Z,1.55
2023-04-06T00:27:27.219Z,1.33
2023-04-06T00:30:49.542Z,1.08
2023-04-06T00:34:11.962Z,1.40
2023-04-06T00:37:34.372Z,1.00
2023-04-06T00:40:57.090Z,1.08
2023-04-06T00:44:20.509Z,1.50
2023-04-06T00:47:43.211Z,1.42
2023-04-06T00:51:05.620Z,1.30
2023-04-06T00:54:31.745Z,1.15
2023-04-06T00:57:55.573Z,1.08
2023-04-06T01:01:18.012Z,1.17
2023-04-06T01:04:41.933Z,1.40
2023-04-06T01:08:10.583Z,1.20
2023-04-06T01:11:33.385Z,1.20
2023-04-06T01:14:57.669Z,1.20
2023-04-06T01:18:30.084Z,1.00
2023-04-06T01:22:07.860Z,1.58
2023-04-06T01:25:40.150Z,1.40
2023-04-06T01:29:04.516Z,1.33
2023-04-06T01:32:26.937Z,1.40
2023-04-06T01:35:49.434Z,1.48
2023-04-06T01:39:14.790Z,1.27
2023-04-06T01:42:37.403Z,1.20
2023-04-06T01:46:00.340Z,1.40
2023-04-06T01:49:28.055Z,1.40
2023-04-06T01:52:52.343Z,1.65
2023-04-06T01:56:15.402Z,1.48
2023-04-06T01:59:46.684Z,1.70
2023-04-06T02:03:17.274Z,1.38
2023-04-06T02:06:41.235Z,1.40
2023-04-06T02:13:34.295Z,1.38
2023-04-06T02:16:57.333Z,1.30
2023-04-06T02:20:20.539Z,1.40
2023-04-06T02:23:42.841Z,1.42
2023-04-06T02:27:05.741Z,1.60
2023-04-06T02:30:28.216Z,1.48
2023-04-06T02:33:50.820Z,1.25
2023-04-06T02:37:13.434Z,1.20
2023-04-06T02:40:35.890Z,1.63
2023-04-06T02:44:10.047Z,1.52
2023-04-06T02:47:38.759Z,1.48
2023-04-06T02:51:01.153Z,1.42
2023-04-06T02:54:23.666Z,1.30
2023-04-06T02:57:46.958Z,1.38
2023-04-06T03:01:09.883Z,1.33
2023-04-06T03:04:34.197Z,1.13
2023-04-06T03:07:59.001Z,1.50
2023-04-06T03:11:34.063Z,1.45
2023-04-06T03:14:56.535Z,1.17
2023-04-06T03:18:24.169Z,1.33
2023-04-06T03:21:48.178Z,1.02
2023-04-06T03:25:12.037Z,1.40
2023-04-06T03:28:35.577Z,1.30
2023-04-06T03:32:04.943Z,1.30
2023-04-06T03:35:31.533Z,1.15
2023-04-06T03:38:56.631Z,1.40
2023-04-06T03:42:19.275Z,1.25
2023-04-06T03:45:47.400Z,1.10
2023-04-06T03:49:11.424Z,1.00
2023-04-06T03:52:33.916Z,1.35
2023-04-06T03:55:56.334Z,1.10
2023-04-06T03:59:18.688Z,1.20
2023-04-06T04:02:41.431Z,1.20
2023-04-06T04:06:04.107Z,1.13
2023-04-06T04:09:29.186Z,1.20
2023-04-06T04:12:52.139Z,1.15
2023-04-06T04:16:14.661Z,1.08
2023-04-06T04:19:37.843Z,1.27
2023-04-06T04:23:00.181Z,1.10
2023-04-06T04:26:25.787Z,1.27
2023-04-06T04:29:48.209Z,0.80
2023-04-06T04:33:10.500Z,1.00
2023-04-06T04:36:33.337Z,0.80
2023-04-06T04:39:59.740Z,1.15
2023-04-06T04:43:24.747Z,1.08
2023-04-06T04:46:47.010Z,0.80
2023-04-06T04:50:11.887Z,1.02
2023-04-06T04:53:37.371Z,0.80
2023-04-06T04:57:10.896Z,1.20
2023-04-06T05:00:37.935Z,0.93
2023-04-06T05:04:01.202Z,0.60
2023-04-06T05:07:24.043Z,0.98
2023-04-06T05:10:49.151Z,0.80
2023-04-06T05:14:11.993Z,0.73
2023-04-06T05:17:34.928Z,0.75
2023-04-06T05:20:58.098Z,0.73
2023-04-06T05:24:28.689Z,0.70
2023-04-06T05:27:51.621Z,0.90
2023-04-06T05:31:26.958Z,1.00
2023-04-06T05:34:51.198Z,0.90
2023-04-06T05:38:13.513Z,0.70
2023-04-06T05:41:36.674Z,0.57
2023-04-06T05:44:58.978Z,0.80
2023-04-06T05:48:22.106Z,0.70
2023-04-06T05:51:44.395Z,0.65
2023-04-06T05:55:09.451Z,0.70
2023-04-06T05:58:33.793Z,0.85
2023-04-06T06:01:56.493Z,0.68
2023-04-06T06:05:19.305Z,0.60
2023-04-06T06:08:42.946Z,0.90
2023-04-06T06:12:11.977Z,0.68
2023-04-06T06:15:35.777Z,0.90
2023-04-06T06:18:58.619Z,0.85
2023-04-06T06:22:21.282Z,0.90
2023-04-06T06:25:43.787Z,0.90
2023-04-06T06:29:07.508Z,0.73
2023-04-06T06:32:33.728Z,0.80
2023-04-06T06:35:56.466Z,0.95
2023-04-06T06:39:18.819Z,0.80
2023-04-06T06:42:41.373Z,0.70
2023-04-06T06:46:12.775Z,0.68
2023-04-06T06:49:36.538Z,0.73
2023-04-06T06:52:59.067Z,0.93
2023-04-06T06:56:21.690Z,1.33
2023-04-06T06:59:45.967Z,0.82
2023-04-06T07:03:08.794Z,0.70
2023-04-06T07:06:31.396Z,1.00
2023-04-06T07:09:53.752Z,0.93
2023-04-06T07:13:22.103Z,0.68
2023-04-06T07:16:46.285Z,0.70
2023-04-06T07:20:09.095Z,0.77
2023-04-06T07:23:31.393Z,0.90
2023-04-06T07:26:53.733Z,0.60
2023-04-06T07:30:16.499Z,0.88
2023-04-06T07:33:38.943Z,0.77
2023-04-06T07:37:03.849Z,0.80
2023-04-06T07:40:27.750Z,0.60
2023-04-06T07:43:51.397Z,0.80
2023-04-06T07:47:14.050Z,0.77
2023-04-06T07:50:36.459Z,0.68
2023-04-06T07:53:59.894Z,0.75
2023-04-06T07:57:22.177Z,0.85
2023-04-06T08:00:44.453Z,0.80
2023-04-06T08:04:06.882Z,0.80
2023-04-06T08:07:29.296Z,0.68
2023-04-06T08:10:51.646Z,0.98
2023-04-06T08:14:13.929Z,0.80
2023-04-06T08:17:36.356Z,0.95
2023-04-06T08:20:58.795Z,0.98
2023-04-06T08:24:21.127Z,0.77
2023-04-06T08:27:43.408Z,1.05
2023-04-06T08:31:08.895Z,0.60
2023-04-06T08:34:31.229Z,0.98
2023-04-06T08:37:53.669Z,0.88
2023-04-06T08:41:17.130Z,0.60
2023-04-06T08:44:42.089Z,0.63
2023-04-06T08:48:07.690Z,0.60
2023-04-06T08:51:33.673Z,0.90
2023-04-06T08:54:56.069Z,1.10
2023-04-06T08:58:31.236Z,0.70
2023-04-06T09:02:01.752Z,0.90
2023-04-06T09:05:26.241Z,1.03
2023-04-06T09:08:48.518Z,0.90
2023-04-06T09:12:13.304Z,0.70
2023-04-06T09:15:36.400Z,0.90
2023-04-06T09:19:05.993Z,0.93
2023-04-06T09:22:38.129Z,0.70
2023-04-06T09:26:18.614Z,0.90
2023-04-06T09:29:41.823Z,0.80
2023-04-06T09:33:04.219Z,0.75
2023-04-06T09:36:39.484Z,0.90
2023-04-06T09:40:08.833Z,0.80
2023-04-06T09:43:31.467Z,0.80
2023-04-06T09:46:59.862Z,0.90
2023-04-06T09:50:24.369Z,0.88
2023-04-06T09:53:53.009Z,0.52
2023-04-06T09:57:24.080Z,0.93
2023-04-06T10:01:02.750Z,0.68
2023-04-06T10:04:33.911Z,0.88
2023-04-06T10:08:01.420Z,0.70
2023-04-06T10:11:23.979Z,0.77
2023-04-06T10:14:46.350Z,0.70
2023-04-06T10:18:09.973Z,0.70
2023-04-06T10:21:34.336Z,0.77
2023-04-06T10:24:56.703Z,0.77
2023-04-06T10:28:20.901Z,0.73
2023-04-06T10:31:45.158Z,0.80
2023-04-06T10:35:09.786Z,0.70
2023-04-06T10:38:39.646Z,0.60
2023-04-06T10:42:08.099Z,0.70
2023-04-06T10:45:32.474Z,0.65
2023-04-06T10:48:54.845Z,0.53
2023-04-06T10:52:17.203Z,0.60
2023-04-06T10:55:42.183Z,0.70
2023-04-06T10:59:04.510Z,0.70
2023-04-06T11:02:27.529Z,0.50
2023-04-06T11:05:52.268Z,0.70
2023-04-06T11:09:28.295Z,0.60
2023-04-06T11:12:57.580Z,0.45
2023-04-06T11:16:21.781Z,0.50
2023-04-06T11:19:44.120Z,0.52
2023-04-06T11:23:07.176Z,0.50
2023-04-06T11:26:29.423Z,0.55
2023-04-06T11:29:52.231Z,0.70
2023-04-06T11:33:23.415Z,0.60
2023-04-06T11:36:47.691Z,0.47
2023-04-06T11:40:10.650Z,0.70
2023-04-06T11:43:33.012Z,0.50
2023-04-06T11:46:55.529Z,0.47
2023-04-06T11:50:17.822Z,0.47
2023-04-06T11:53:47.164Z,0.32
2023-04-06T11:57:10.032Z,0.38
2023-04-06T12:00:35.621Z,0.40
2023-04-06T12:03:58.163Z,0.60
2023-04-06T12:07:20.815Z,0.50
2023-04-06T12:10:43.258Z,1.10
2023-04-06T12:14:06.382Z,0.50
2023-04-06T12:17:28.683Z,0.60
2023-04-06T12:20:51.189Z,0.50
2023-04-06T12:24:13.482Z,0.50
2023-04-06T12:27:35.803Z,0.45
2023-04-06T12:30:58.087Z,0.32
2023-04-06T12:34:20.398Z,0.50
2023-04-06T12:37:43.200Z,0.50
2023-04-06T12:41:05.543Z,0.63
2023-04-06T12:44:27.847Z,0.50
2023-04-06T12:47:50.285Z,0.50
2023-04-06T12:51:12.868Z,0.40
2023-04-06T12:54:35.185Z,0.70
2023-04-06T12:57:57.575Z,0.50
2023-04-06T13:01:20.057Z,0.52
2023-04-06T13:04:42.771Z,0.40
2023-04-06T13:08:05.130Z,0.55
2023-04-06T13:11:28.716Z,0.50
2023-04-06T13:14:53.500Z,0.40
2023-04-06T13:18:16.956Z,0.30
2023-04-06T13:21:42.386Z,0.30
2023-04-06T13:25:04.942Z,0.40
2023-04-06T13:28:27.425Z,0.50
2023-04-06T13:31:49.807Z,0.30
2023-04-06T13:35:12.689Z,0.40
2023-04-06T13:38:35.197Z,0.55
2023-04-06T13:41:57.654Z,0.40
2023-04-06T13:45:20.049Z,0.50
2023-04-06T13:48:42.499Z,0.40
2023-04-06T13:52:05.145Z,0.50
2023-04-06T13:55:27.398Z,0.50
2023-04-06T13:58:49.740Z,0.60
2023-04-06T14:02:12.368Z,0.55
2023-04-06T14:05:35.008Z,0.40
2023-04-06T14:08:58.114Z,0.43
2023-04-06T14:12:20.674Z,0.40
2023-04-06T14:15:43.018Z,0.63
2023-04-06T14:19:05.301Z,0.50
2023-04-06T14:22:27.531Z,0.50
2023-04-06T14:25:49.783Z,0.28
2023-04-06T14:29:12.078Z,0.60
2023-04-06T14:32:34.500Z,0.40
2023-04-06T14:35:57.026Z,0.50
2023-04-06T14:39:19.586Z,0.43
2023-04-06T14:42:42.233Z,0.40
2023-04-06T14:46:04.587Z,0.50
2023-04-06T14:49:26.794Z,0.50
2023-04-06T14:52:49.010Z,0.35
2023-04-06T14:56:11.346Z,0.45
2023-04-06T14:59:35.931Z,0.40
2023-04-06T15:03:01.454Z,0.43
2023-04-06T15:06:23.879Z,0.50
2023-04-06T15:09:46.122Z,0.57
2023-04-06T15:13:08.620Z,0.30
2023-04-06T15:16:33.897Z,0.40
2023-04-06T15:19:56.254Z,0.50
2023-04-06T15:23:19.246Z,0.50
2023-04-06T15:26:41.685Z,0.65
2023-04-06T15:30:04.604Z,0.80
2023-04-06T15:33:27.826Z,0.40
2023-04-06T15:36:50.159Z,0.57
2023-04-06T15:40:14.487Z,0.50
2023-04-06T15:43:36.756Z,0.70
2023-04-06T15:46:59.005Z,0.77
2023-04-06T15:50:21.230Z,0.80
2023-04-06T15:53:44.285Z,0.60
2023-04-06T15:57:07.365Z,0.75
2023-04-06T16:00:29.842Z,0.52
2023-04-06T16:03:52.264Z,0.63
2023-04-06T16:07:14.553Z,0.70
2023-04-06T16:10:36.914Z,0.50
2023-04-06T16:13:59.724Z,0.43
2023-04-06T16:17:22.638Z,0.52
2023-04-06T16:20:45.174Z,0.63
2023-04-06T16:24:08.575Z,0.90
2023-04-06T16:27:30.973Z,0.57
2023-04-06T16:30:53.524Z,0.80
2023-04-06T16:34:15.871Z,0.35
2023-04-06T16:37:38.078Z,0.70
2023-04-06T16:41:04.303Z,0.70
2023-04-06T16:44:27.209Z,0.75
2023-04-06T16:47:50.744Z,0.60
2023-04-06T16:51:13.218Z,0.75
2023-04-06T16:54:35.619Z,0.55
2023-04-06T16:57:57.899Z,0.73
2023-04-06T17:01:26.342Z,0.60
2023-04-06T17:04:48.795Z,0.93
2023-04-06T17:08:11.055Z,0.68
2023-04-06T17:11:43.663Z,0.45
2023-04-06T17:15:08.674Z,0.50
2023-04-06T17:18:30.997Z,0.50
2023-04-06T17:21:53.709Z,0.63
2023-04-06T17:25:16.616Z,0.85
2023-04-06T17:28:38.955Z,0.70
2023-04-06T17:32:01.795Z,0.90
2023-04-06T17:35:24.134Z,0.47
2023-04-06T17:38:46.648Z,0.60
2023-04-06T17:42:09.105Z,0.88
2023-04-06T17:45:31.742Z,0.60
2023-04-06T17:48:54.030Z,0.50
2023-04-06T17:52:16.597Z,0.55
2023-04-06T17:55:38.882Z,0.57
2023-04-06T17:59:01.326Z,0.45
2023-04-06T18:02:23.976Z,0.55
2023-04-06T18:05:46.754Z,0.47
2023-04-06T18:09:09.228Z,0.68
2023-04-06T18:12:32.222Z,0.50
2023-04-06T18:15:54.617Z,0.60
2023-04-06T18:19:16.932Z,0.43
2023-04-06T18:22:39.709Z,0.40
2023-04-06T18:26:02.037Z,0.43
2023-04-06T18:29:24.367Z,0.60
2023-04-06T18:32:46.646Z,0.75
2023-04-06T18:36:10.419Z,0.60
2023-04-06T18:39:32.662Z,0.77
2023-04-06T18:42:54.917Z,0.60
2023-04-06T18:46:19.564Z,0.75
2023-04-06T18:49:42.012Z,0.90
2023-04-06T18:53:04.266Z,0.60
2023-04-06T18:56:26.406Z,0.50
2023-04-06T18:59:48.674Z,1.08
2023-04-06T19:03:11.165Z,0.40
2023-04-06T19:06:34.163Z,0.40
2023-04-06T19:09:56.396Z,0.38
2023-04-06T19:13:18.566Z,0.60
2023-04-06T19:16:43.656Z,1.00
2023-04-06T19:20:07.269Z,0.38
2023-04-06T19:23:29.496Z,0.32
2023-04-06T19:26:52.186Z,0.57
2023-04-06T19:30:14.492Z,0.50
2023-04-06T19:33:38.336Z,0.60
2023-04-06T19:37:00.720Z,0.50
2023-04-06T19:40:22.933Z,0.45
2023-04-06T19:43:45.441Z,0.50
2023-04-06T19:47:07.683Z,0.60
2023-04-06T19:50:29.892Z,0.40
2023-04-06T19:53:52.071Z,0.35
2023-04-06T19:57:14.878Z,0.43
2023-04-06T20:00:37.100Z,0.30
2023-04-06T20:03:59.518Z,0.43
2023-04-06T20:07:21.981Z,0.40
2023-04-06T20:10:44.232Z,0.55
2023-04-06T20:14:07.252Z,0.40
2023-04-06T20:17:29.498Z,0.60
2023-04-06T20:20:52.182Z,0.60
2023-04-06T20:24:15.373Z,0.40
2023-04-06T20:27:37.548Z,0.45
2023-04-06T20:31:00.783Z,0.30
2023-04-06T20:34:25.919Z,0.52
2023-04-06T20:37:48.159Z,0.50
2023-04-06T20:41:10.490Z,0.30
2023-04-06T20:44:32.885Z,0.50
2023-04-06T20:47:55.339Z,0.60
2023-04-06T20:51:19.538Z,0.60
2023-04-06T20:54:41.830Z,0.50
2023-04-06T20:58:04.165Z,0.57
2023-04-06T21:01:27.172Z,0.80
2023-04-06T21:04:49.567Z,0.45
2023-04-06T21:08:12.085Z,0.55
2023-04-06T21:11:34.449Z,0.60
2023-04-06T21:14:56.670Z,0.43
2023-04-06T21:18:19.034Z,0.40
2023-04-06T21:21:41.333Z,0.55
2023-04-06T21:25:03.671Z,0.60
2023-04-06T21:28:26.747Z,0.68
2023-04-06T21:31:49.048Z,0.50
2023-04-06T21:35:11.407Z,0.57
2023-04-06T21:38:35.201Z,0.55
2023-04-06T21:41:58.491Z,0.50
2023-04-06T21:45:20.894Z,0.63
2023-04-06T21:48:43.140Z,0.65
2023-04-06T21:52:05.502Z,0.40
2023-04-06T21:55:27.850Z,0.60
2023-04-06T21:58:51.057Z,0.60
2023-04-06T22:02:13.460Z,0.50
2023-04-06T22:05:38.247Z,0.57
2023-04-06T22:09:01.860Z,0.45
2023-04-06T22:12:24.821Z,0.47
2023-04-06T22:15:47.113Z,0.55
2023-04-06T22:19:09.457Z,0.47
2023-04-06T22:22:31.714Z,0.40
2023-04-06T22:25:54.101Z,0.32
2023-04-06T22:29:16.351Z,0.50
2023-04-06T22:32:38.596Z,0.40
2023-04-06T22:36:01.098Z,0.50
2023-04-06T22:39:23.350Z,0.50
2023-04-06T22:42:45.595Z,0.52
2023-04-06T22:46:07.923Z,0.82
2023-04-06T22:49:30.346Z,0.47
2023-04-06T22:52:53.134Z,0.73
2023-04-06T22:56:15.550Z,0.60
2023-04-06T22:59:38.090Z,0.82
2023-04-06T23:03:01.454Z,0.45
2023-04-06T23:06:23.934Z,0.50
2023-04-06T23:09:46.980Z,0.50
2023-04-06T23:13:10.378Z,0.45
2023-04-06T23:16:32.809Z,0.68
2023-04-06T23:19:55.687Z,0.60
2023-04-06T23:23:17.960Z,0.52
2023-04-06T23:26:40.445Z,0.65
2023-04-06T23:30:02.765Z,0.60
2023-04-06T23:33:25.138Z,0.52
2023-04-06T23:36:47.647Z,0.63
2023-04-06T23:40:10.494Z,0.50
2023-04-06T23:43:32.786Z,0.60
2023-04-06T23:46:55.107Z,0.50
2023-04-06T23:50:17.345Z,0.60
2023-04-06T23:53:39.721Z,0.38
2023-04-06T23:57:01.999Z,0.60
